« Back
NWS Peachtree City, Ga » Text Product » AHN Terminal Aerodrome Forecast


Printer-friendly Version
Current Version              Previous Versions:   1  2  3  4  5  6  7  8  9  

Terminal Aerodrome Forecast

856
FTAK31 PAJN 192300
TAFAHN
TAF
PAHN 192337Z 2000/2024 30010KT P6SM BKN070
     FM200300 30012KT P6SM VCSH BKN060
     FM200900 30012KT P6SM -SN SCT040 OVC060
      AMD LTD TO CLD VIS AND WIND=



USA.gov is the U.S. government's official web portal to all federal, state and local government web resources and services.